• Join FlightAware (Why Join?)
  • Login
  • US Flag 
11:49PM EDT


 

Airport Tracker/Info


-or-


 

Live Flight TrackerFlight Track Log ✈ JBU917 ✈ 04-Jul-2013 ✈ KBOS - KJFK

Flight Track Log - Related Links

Times and Time Zones

All times are in EDT time to prevent confusion due to time zone crossing. See the JBU917 flight status page for this flight to view local times or setup timezone preferences in your user account.

Time Position Orientation Groundspeed Altitude Reporting Facility
EDT Latitude Longitude Course Direction KTS MPH feet Rate Location/Type
06:02AM 42.3500 -71.0167 206° Southwest 167 192 800  Level KA90
06:04AM 42.3247 -70.8564 102° East 232 267 6,600 2,760 Climbing Boston Center
06:05AM 41.9009 -70.7034 198° South  Level FlightAware Approximate
06:05AM 42.3103 -70.7275 99° East 273 314 10,400  Level Boston Center
06:06AM 41.8498 -70.7260 198° South  Level FlightAware Approximate
06:06AM 42.2322 -70.6567 146° Southeast 289 333 12,300  Level Boston Center
06:07AM 41.8007 -70.7551 206° Southwest  Level FlightAware Approximate
06:07AM 42.1336 -70.6203 165° South 318 366 13,900  Level Boston Center
06:08AM 42.0406 -70.6594 197° South 318 366 14,000  Climbing Boston Center
06:09AM 41.9494 -70.7011 199° South 329 379 14,000 1,260 Level Boston Center
06:10AM 41.8542 -70.7428 198° South 349 402 16,600 2,400 Climbing Boston Center
06:11AM 41.7656 -70.8064 208° Southwest 360 414 18,800 2,100 Climbing Boston Center
06:12AM 41.6747 -70.8725 209° Southwest 376 433 20,800 1,560 Climbing Boston Center
06:13AM 41.6136 -70.9906 235° Southwest 369 425 22,000 600 Climbing Boston Center
06:14AM 41.5694 -71.1167 245° Southwest 375 432 22,000  Level Boston Center
06:15AM 41.5228 -71.2422 244° Southwest 381 438 22,000  Level Boston Center
06:16AM 41.4783 -71.3678 245° Southwest 381 438 22,000  Level Boston Center
06:17AM 41.4314 -71.4958 244° Southwest 386 444 22,000  Level Boston Center
06:18AM 41.3825 -71.6156 241° Southwest 386 444 22,000  Level Boston Center
06:19AM 41.3250 -71.7381 238° Southwest 381 438 22,000  Level Boston Center
06:20AM 41.2817 -71.8325 239° Southwest 386 444 22,000  Level Boston Center
06:21AM 41.2117 -71.9794 238° Southwest 391 450 22,000  Level Boston Center
06:22AM 41.1514 -72.0928 235° Southwest 391 450 22,000 -300 Level Boston Center
06:23AM 41.0936 -72.2142 238° Southwest 391 450 21,500 -1,020 Descending Boston Center
06:24AM 41.0458 -72.3161 238° Southwest 391 450 20,000 -1,800 Descending Boston Center
06:25AM 40.9894 -72.4236 235° Southwest 380 437 18,000 -1,800 Descending Boston Center
06:26AM 40.9353 -72.5308 236° Southwest 368 423 16,400 -1,680 Descending Boston Center
06:27AM 40.8831 -72.6433 238° Southwest 361 415 14,700 -1,800 Descending Boston Center
06:28AM 40.8333 -72.7333 234° Southwest 319 367 13,000 -1,080 Descending New York TRACON
06:30AM 40.8082 -72.8717 257° West  Level FlightAware Approximate
06:30AM 40.7667 -72.9167 257° West 283 326 11,800  Level New York TRACON
06:31AM 40.7333 -73.0167 246° West 278 320 10,100 -1,440 Descending New York TRACON
06:32AM 40.7000 -73.1000 242° Southwest 275 316 9,000 -1,260 Descending New York TRACON
06:33AM 40.7000 -73.2000 270° West 267 307 7,800 -1,380 Descending New York TRACON
06:34AM 40.7000 -73.2667 270° West 260 299 6,700 -1,500 Descending New York TRACON
06:35AM 40.7000 -73.3667 270° West 254 292 5,100 -1,260 Descending New York TRACON
06:36AM 40.7333 -73.4333 303° West 264 304 4,400 -1,020 Descending New York TRACON
06:37AM 40.7833 -73.5167 308° West 255 293 3,000 -900 Descending New York TRACON
06:38AM 40.8000 -73.5833 288° West 228 262 2,700 -600 Descending New York TRACON
06:39AM 40.7833 -73.6500 252° West 242 278 2,000 -420 Descending New York TRACON
06:40AM 40.7333 -73.6833 207° Southwest 177 204 1,900 -480 Descending New York TRACON
06:41AM 40.7000 -73.7167 217° Southwest 148 170 1,100 -780 Descending New York TRACON
06:42AM 40.6667 -73.7333 201° Southwest 117 135 500 -720 Descending New York TRACON
06:44AM 40.6333 -73.7667 North  Level FlightAware Approximate
06:51AM 40.6398 -73.7789 North  Level Estimated